Time;durP1;ratioP1;P1;durP2;ratioP2;P2;SDS_P1;SDS_P2;PMS_P1;PMS_P2;Temp;Humidity;BMP_temperature;BMP_pressure;BME280_temperature;BME280_humidity;BME280_pressure;Samples;Min_cycle;Max_cycle;Signal;HPM_P1;HPM_P2
2021/07/30 00:01:20;;;;;;;0.00;0.00;;;15.10;99.90;;;;;;5051575;28;20525;-88
2021/07/30 00:04:07;;;;;;;;;;;15.00;99.90;;;;;;5056522;28;20036;-88
2021/07/30 00:06:54;;;;;;;0.00;0.00;;;15.00;99.90;;;;;;5052383;28;20293;-88
2021/07/30 00:09:41;;;;;;;0.00;0.00;;;14.90;99.90;;;;;;5056265;28;20041;-89
2021/07/30 00:12:28;;;;;;;0.00;0.00;;;14.80;99.90;;;;;;5055321;28;20456;-88
2021/07/30 00:15:17;;;;;;;0.00;0.00;;;;;;;;;;5054353;28;20053;-88
2021/07/30 00:18:05;;;;;;;0.00;0.00;;;14.80;99.90;;;;;;5047619;28;20071;-88
2021/07/30 00:20:52;;;;;;;0.00;0.00;;;14.80;99.90;;;;;;5054104;28;20760;-89
2021/07/30 00:23:39;;;;;;;0.00;0.00;;;14.90;99.90;;;;;;5070506;28;20131;-89
2021/07/30 00:26:27;;;;;;;0.00;0.00;;;14.80;99.90;;;;;;5050912;28;20040;-87
2021/07/30 00:29:14;;;;;;;0.10;0.10;;;14.70;99.90;;;;;;5054614;28;20053;-88
2021/07/30 00:32:01;;;;;;;0.00;0.00;;;14.70;99.90;;;;;;5056592;28;20044;-89
2021/07/30 00:34:49;;;;;;;0.00;0.00;;;14.40;99.90;;;;;;5047776;28;20126;-89
2021/07/30 00:37:37;;;;;;;0.00;0.00;;;14.60;99.90;;;;;;5053426;28;20179;-87
2021/07/30 00:40:24;;;;;;;0.00;0.00;;;;;;;;;;5053053;28;20131;-90
2021/07/30 00:43:11;;;;;;;0.00;0.00;;;14.60;99.90;;;;;;5058585;28;20040;-87
2021/07/30 00:45:59;;;;;;;0.00;0.00;;;14.50;99.90;;;;;;5053548;28;20123;-90
2021/07/30 00:48:46;;;;;;;0.00;0.00;;;14.50;99.90;;;;;;5053913;28;20042;-90
2021/07/30 00:51:36;;;;;;;0.00;0.00;;;14.50;99.90;;;;;;5053738;28;20516;-88
2021/07/30 00:54:24;;;;;;;0.00;0.00;;;14.50;99.90;;;;;;5050187;28;20044;-90
2021/07/30 00:57:12;;;;;;;0.00;0.00;;;14.50;99.90;;;;;;5053882;28;20067;-88
2021/07/30 01:00:00;;;;;;;0.00;0.00;;;14.50;99.90;;;;;;5056726;28;20572;-89
2021/07/30 01:02:47;;;;;;;0.00;0.00;;;14.40;99.90;;;;;;5053445;28;20048;-90
2021/07/30 01:05:35;;;;;;;0.00;0.00;;;14.40;99.90;;;;;;5053027;28;20041;-89
2021/07/30 01:08:23;;;;;;;0.00;0.00;;;14.40;99.90;;;;;;5061517;28;20127;-89
2021/07/30 01:11:11;;;;;;;0.00;0.00;;;;;;;;;;5055916;28;20474;-88
2021/07/30 01:13:58;;;;;;;0.00;0.00;;;14.40;99.90;;;;;;5054461;28;20054;-87
2021/07/30 01:16:45;;;;;;;0.00;0.00;;;14.40;99.90;;;;;;5053983;28;20036;-89
2021/07/30 01:19:32;;;;;;;0.00;0.00;;;14.40;99.90;;;;;;5055297;28;20055;-90
2021/07/30 01:22:24;;;;;;;0.00;0.00;;;14.40;99.90;;;;;;5054340;28;20045;-88
2021/07/30 01:25:12;;;;;;;0.00;0.00;;;14.40;99.90;;;;;;5055729;28;20054;-88
2021/07/30 01:27:59;;;;;;;0.00;0.00;;;14.30;99.90;;;;;;5048101;28;20159;-88
2021/07/30 01:30:46;;;;;;;0.00;0.00;;;14.30;99.90;;;;;;5049942;28;20053;-90
2021/07/30 01:33:34;;;;;;;0.10;0.10;;;;;;;;;;5069412;28;20045;-88
2021/07/30 01:36:21;;;;;;;0.00;0.00;;;14.30;99.90;;;;;;5055067;28;20056;-88
2021/07/30 01:39:08;;;;;;;0.00;0.00;;;14.30;99.90;;;;;;5053421;28;20040;-88
2021/07/30 01:41:57;;;;;;;0.00;0.00;;;14.20;99.90;;;;;;5053142;28;20043;-89
2021/07/30 01:44:44;;;;;;;0.00;0.00;;;14.10;99.90;;;;;;5055340;28;20123;-89
2021/07/30 01:47:31;;;;;;;0.00;0.00;;;14.10;99.90;;;;;;5054233;28;20051;-89
2021/07/30 01:50:18;;;;;;;0.00;0.00;;;14.20;99.90;;;;;;5054062;28;20044;-90
2021/07/30 01:53:05;;;;;;;0.00;0.00;;;14.20;99.90;;;;;;5055461;28;20051;-87
2021/07/30 01:55:53;;;;;;;0.00;0.00;;;14.20;99.90;;;;;;5049823;28;20074;-89
2021/07/30 01:58:41;;;;;;;0.00;0.00;;;14.10;99.90;;;;;;5055284;28;20051;-89
2021/07/30 02:01:28;;;;;;;0.00;0.00;;;13.90;99.90;;;;;;5040122;28;20119;-88
2021/07/30 02:04:18;;;;;;;0.00;0.00;;;13.90;99.90;;;;;;5054818;28;20048;-88
2021/07/30 02:07:05;;;;;;;0.00;0.00;;;13.90;99.90;;;;;;5049230;28;20178;-89
2021/07/30 02:09:52;;;;;;;0.00;0.00;;;13.90;99.90;;;;;;5050260;28;20132;-88
2021/07/30 02:15:47;;;;;;;0.00;0.00;;;14.00;99.90;;;;;;5066225;28;20047;-89
2021/07/30 02:18:34;;;;;;;0.00;0.00;;;14.10;99.90;;;;;;5052484;28;20115;-90
2021/07/30 02:21:22;;;;;;;0.00;0.00;;;14.00;99.90;;;;;;5053203;28;20059;-88
2021/07/30 02:24:09;;;;;;;0.00;0.00;;;14.00;99.90;;;;;;5054807;28;20045;-88
2021/07/30 02:26:56;;;;;;;0.10;0.10;;;13.90;99.90;;;;;;5052602;28;20087;-88
2021/07/30 02:29:43;;;;;;;0.00;0.00;;;13.90;99.90;;;;;;5054568;28;20045;-88
2021/07/30 02:32:32;;;;;;;0.00;0.00;;;13.90;99.90;;;;;;5058634;28;20040;-90
2021/07/30 02:35:20;;;;;;;0.00;0.00;;;13.90;99.90;;;;;;5053761;28;20686;-89
2021/07/30 02:38:07;;;;;;;0.00;0.00;;;14.00;99.90;;;;;;5051081;28;20119;-90
2021/07/30 02:40:54;;;;;;;0.00;0.00;;;13.90;99.90;;;;;;5048396;28;20090;-89
2021/07/30 02:43:41;;;;;;;0.00;0.00;;;13.90;99.90;;;;;;5051169;28;20491;-88
2021/07/30 02:46:28;;;;;;;0.00;0.00;;;13.80;99.90;;;;;;5053998;28;20151;-89
2021/07/30 02:49:16;;;;;;;0.00;0.00;;;13.90;99.90;;;;;;5052622;28;20037;-89
2021/07/30 02:52:04;;;;;;;0.00;0.00;;;13.80;99.90;;;;;;5052474;28;20631;-89
2021/07/30 02:54:52;;;;;;;0.00;0.00;;;13.80;99.90;;;;;;5054047;28;20135;-89
2021/07/30 02:57:39;;;;;;;0.00;0.00;;;13.80;99.90;;;;;;5053581;28;20105;-88
2021/07/30 03:00:26;;;;;;;0.00;0.00;;;13.80;99.90;;;;;;5050467;28;20071;-89
2021/07/30 03:03:13;;;;;;;0.00;0.00;;;13.80;99.90;;;;;;5051774;28;20439;-88
2021/07/30 03:06:02;;;;;;;0.00;0.00;;;13.70;99.90;;;;;;5051670;28;20048;-88
2021/07/30 03:08:49;;;;;;;0.00;0.00;;;13.80;99.90;;;;;;5053480;28;20116;-89
2021/07/30 03:11:36;;;;;;;0.00;0.00;;;13.80;99.90;;;;;;5051808;28;20526;-88
2021/07/30 03:14:23;;;;;;;0.00;0.00;;;13.80;99.90;;;;;;5049677;28;20830;-90
2021/07/30 03:17:10;;;;;;;0.00;0.00;;;13.80;99.90;;;;;;5053811;28;20071;-90
2021/07/30 03:19:57;;;;;;;0.00;0.00;;;13.80;99.90;;;;;;5049846;28;20461;-89
2021/07/30 03:22:46;;;;;;;0.00;0.00;;;13.80;99.90;;;;;;5053028;28;20048;-89
2021/07/30 03:25:33;;;;;;;0.00;0.00;;;13.80;99.90;;;;;;5053940;28;20076;-89
2021/07/30 03:28:20;;;;;;;0.00;0.00;;;13.80;99.90;;;;;;5052914;28;20041;-87
2021/07/30 03:31:08;;;;;;;0.05;0.05;;;13.80;99.90;;;;;;5050561;28;20231;-88
2021/07/30 03:33:55;;;;;;;0.00;0.00;;;13.80;99.90;;;;;;5054403;28;20151;-87
2021/07/30 03:36:42;;;;;;;0.00;0.00;;;13.80;99.90;;;;;;5063785;28;20053;-88
2021/07/30 03:39:31;;;;;;;0.00;0.00;;;13.70;99.90;;;;;;5046078;28;20123;-88
2021/07/30 03:42:18;;;;;;;0.00;0.00;;;13.70;99.90;;;;;;5052094;28;20559;-89
2021/07/30 03:45:06;;;;;;;0.00;0.00;;;13.70;99.90;;;;;;5050113;28;20037;-88
2021/07/30 03:47:53;;;;;;;0.00;0.00;;;13.70;99.90;;;;;;5048199;28;20565;-89
2021/07/30 03:50:40;;;;;;;0.00;0.00;;;13.70;99.90;;;;;;5054561;28;20097;-89
2021/07/30 03:53:27;;;;;;;0.00;0.00;;;13.70;99.90;;;;;;5054091;28;20451;-88
2021/07/30 03:56:16;;;;;;;0.00;0.00;;;13.70;99.90;;;;;;5051886;28;20094;-89
2021/07/30 03:59:04;;;;;;;0.00;0.00;;;13.70;99.90;;;;;;5054273;28;20039;-88
2021/07/30 04:01:51;;;;;;;0.10;0.10;;;13.80;99.90;;;;;;5052468;28;20049;-88
2021/07/30 04:04:38;;;;;;;0.00;0.00;;;13.70;99.90;;;;;;5053875;28;20037;-89
2021/07/30 04:07:25;;;;;;;0.00;0.00;;;13.70;99.90;;;;;;5049598;28;20123;-89
2021/07/30 04:10:13;;;;;;;0.00;0.00;;;;;;;;;;5051960;28;20497;-88
2021/07/30 04:13:01;;;;;;;0.00;0.00;;;13.70;99.90;;;;;;5052405;28;20066;-89
2021/07/30 04:15:48;;;;;;;0.00;0.00;;;13.70;99.90;;;;;;5053447;28;20417;-88
2021/07/30 04:18:35;;;;;;;0.00;0.00;;;13.80;99.90;;;;;;5045721;28;20162;-89
2021/07/30 04:21:22;;;;;;;0.00;0.00;;;13.80;99.90;;;;;;5047945;28;20139;-90
2021/07/30 04:24:09;;;;;;;0.00;0.00;;;14.80;99.90;;;;;;5050891;28;20545;-87
2021/07/30 04:26:57;;;;;;;0.00;0.00;;;13.80;99.90;;;;;;5062913;28;20135;-87
2021/07/30 04:29:45;;;;;;;0.00;0.00;;;13.80;99.90;;;;;;5046916;28;20112;-88
2021/07/30 04:32:32;;;;;;;0.00;0.00;;;13.80;99.90;;;;;;5048930;28;20132;-90
2021/07/30 04:35:20;;;;;;;0.00;0.00;;;13.80;99.90;;;;;;5050566;28;20045;-88
2021/07/30 04:38:07;;;;;;;0.00;0.00;;;13.80;99.90;;;;;;5051404;28;20738;-89
2021/07/30 04:40:54;;;;;;;0.00;0.00;;;13.80;99.90;;;;;;5044342;28;20041;-88
2021/07/30 04:43:41;;;;;;;0.00;0.00;;;13.80;99.90;;;;;;5066051;28;20131;-88
2021/07/30 04:46:30;;;;;;;0.00;0.00;;;13.90;99.90;;;;;;5057204;28;20123;-88
2021/07/30 04:49:17;;;;;;;0.00;0.00;;;13.90;99.90;;;;;;5057745;28;20041;-87
2021/07/30 04:52:05;;;;;;;0.00;0.00;;;13.80;99.90;;;;;;5057765;28;20612;-89
2021/07/30 04:54:52;;;;;;;0.00;0.00;;;13.80;99.90;;;;;;5068908;28;20529;-90
2021/07/30 04:57:39;;;;;;;0.00;0.00;;;13.90;99.90;;;;;;5067672;28;20131;-89
2021/07/30 05:00:26;;;;;;;0.00;0.00;;;14.00;99.90;;;;;;5051391;28;20041;-88
2021/07/30 05:03:15;;;;;;;0.00;0.00;;;14.10;99.90;;;;;;5057209;28;20105;-88
2021/07/30 05:06:11;;;;;;;0.00;0.00;;;14.20;99.90;;;;;;5052339;28;20127;-89
2021/07/30 05:08:58;;;;;;;0.00;0.00;;;14.30;99.90;;;;;;5053555;28;20581;-88
2021/07/30 05:11:46;;;;;;;0.00;0.00;;;14.40;99.90;;;;;;5051645;28;20040;-88
2021/07/30 05:14:33;;;;;;;0.00;0.00;;;14.50;99.90;;;;;;5070535;28;20178;-88
2021/07/30 05:17:20;;;;;;;0.00;0.00;;;14.60;99.90;;;;;;5056237;28;20059;-89
2021/07/30 05:20:10;;;;;;;0.00;0.00;;;14.70;99.90;;;;;;5053388;28;20032;-88
2021/07/30 05:22:57;;;;;;;0.00;0.00;;;14.70;99.90;;;;;;5052644;28;20424;-88
2021/07/30 05:25:51;;;;;;;0.00;0.00;;;14.80;99.90;;;;;;5047894;28;20049;-89
2021/07/30 05:28:39;;;;;;;0.03;0.03;;;15.00;99.90;;;;;;5050964;28;20074;-89
2021/07/30 05:31:26;;;;;;;0.00;0.00;;;15.00;99.90;;;;;;5055115;28;20040;-90
2021/07/30 05:34:13;;;;;;;0.00;0.00;;;15.10;99.90;;;;;;5055400;28;20519;-89
2021/07/30 05:37:02;;;;;;;0.00;0.00;;;15.10;99.90;;;;;;5056332;28;20044;-89
2021/07/30 05:39:49;;;;;;;0.00;0.00;;;15.20;99.90;;;;;;5045833;28;20566;-89
2021/07/30 05:42:36;;;;;;;0.00;0.00;;;15.20;99.90;;;;;;5066958;28;20044;-88
2021/07/30 05:45:23;;;;;;;0.00;0.00;;;15.30;99.90;;;;;;5052954;28;20548;-89
2021/07/30 05:48:10;;;;;;;0.00;0.00;;;15.30;99.90;;;;;;5053033;28;20094;-89
2021/07/30 05:50:57;;;;;;;0.00;0.00;;;15.30;99.90;;;;;;5047058;28;20037;-89
2021/07/30 05:53:45;;;;;;;0.00;0.00;;;15.50;99.90;;;;;;5053790;28;20557;-89
2021/07/30 05:56:32;;;;;;;0.00;0.00;;;15.50;99.90;;;;;;5053953;28;20043;-88
2021/07/30 05:59:19;;;;;;;0.00;0.00;;;15.60;99.90;;;;;;5056605;28;20041;-91
2021/07/30 06:02:06;;;;;;;0.00;0.00;;;15.70;99.90;;;;;;5051889;28;20040;-88
2021/07/30 06:04:54;;;;;;;0.00;0.00;;;15.80;99.90;;;;;;5062280;28;20387;-90
2021/07/30 06:07:41;;;;;;;0.00;0.00;;;15.90;99.90;;;;;;5047176;28;20121;-89
2021/07/30 06:10:30;;;;;;;0.00;0.00;;;16.20;99.90;;;;;;5054099;28;20116;-91
2021/07/30 06:13:17;;;;;;;0.00;0.00;;;16.30;99.90;;;;;;5052333;28;20052;-89
2021/07/30 06:16:07;;;;;;;0.00;0.00;;;16.60;99.90;;;;;;5056407;28;20125;-90
2021/07/30 06:18:55;;;;;;;0.00;0.00;;;16.80;99.90;;;;;;5055959;28;20518;-90
2021/07/30 06:21:42;;;;;;;0.00;0.00;;;17.00;99.90;;;;;;5051098;28;20127;-91
2021/07/30 06:24:29;;;;;;;0.00;0.00;;;17.10;99.90;;;;;;5055495;28;20614;-89
2021/07/30 06:27:17;;;;;;;0.00;0.00;;;17.30;99.90;;;;;;5054772;28;20044;-89
2021/07/30 06:30:07;;;;;;;0.00;0.00;;;17.30;99.90;;;;;;5056031;28;20482;-90
2021/07/30 06:32:54;;;;;;;;;;;17.40;99.90;;;;;;5071404;28;20044;-90
2021/07/30 06:35:41;;;;;;;0.00;0.00;;;17.50;99.90;;;;;;5055678;28;20118;-88
2021/07/30 06:38:29;;;;;;;0.00;0.00;;;;;;;;;;5055787;28;20040;-90
2021/07/30 06:41:17;;;;;;;0.00;0.00;;;17.60;99.90;;;;;;5066023;28;20105;-88
2021/07/30 06:44:09;;;;;;;0.00;0.00;;;17.70;99.90;;;;;;5074842;28;20044;-90
2021/07/30 06:46:56;;;;;;;0.00;0.00;;;17.70;99.90;;;;;;5055562;28;20079;-88
2021/07/30 06:49:43;;;;;;;0.00;0.00;;;17.70;99.90;;;;;;5055503;28;20128;-88
2021/07/30 06:52:33;;;;;;;0.00;0.00;;;17.70;99.90;;;;;;5036195;28;20116;-90
2021/07/30 06:55:21;;;;;;;0.00;0.00;;;17.80;99.90;;;;;;5040249;28;20045;-90
2021/07/30 06:58:08;;;;;;;0.00;0.00;;;20.60;99.90;;;;;;5067702;28;20048;-88
2021/07/30 07:00:56;;;;;;;0.00;0.00;;;18.20;99.90;;;;;;5055779;28;20044;-88
2021/07/30 07:03:43;;;;;;;0.00;0.00;;;18.40;99.90;;;;;;5047194;28;20056;-89
2021/07/30 07:06:31;;;;;;;0.00;0.00;;;18.50;99.90;;;;;;5035496;28;20055;-89
2021/07/30 07:09:18;;;;;;;0.00;0.00;;;18.50;99.90;;;;;;5035129;28;20166;-89
2021/07/30 07:12:06;;;;;;;0.00;0.00;;;18.50;99.90;;;;;;5052718;28;20062;-89
2021/07/30 07:14:53;;;;;;;0.00;0.00;;;18.50;99.90;;;;;;5054525;28;20074;-89
2021/07/30 07:17:41;;;;;;;0.00;0.00;;;18.50;99.90;;;;;;5054865;28;20070;-90
2021/07/30 07:20:28;;;;;;;0.00;0.00;;;18.50;99.90;;;;;;5055204;28;20159;-89
2021/07/30 07:23:16;;;;;;;0.00;0.00;;;19.30;99.90;;;;;;5055140;28;20052;-89
2021/07/30 07:26:03;;;;;;;0.00;0.00;;;18.50;99.90;;;;;;5050253;28;20053;-89
2021/07/30 07:28:50;;;;;;;0.00;0.00;;;18.60;99.90;;;;;;5049363;28;20105;-90
2021/07/30 07:31:37;;;;;;;0.00;0.00;;;18.80;99.90;;;;;;5051465;28;20119;-90
2021/07/30 07:34:26;;;;;;;0.00;0.00;;;18.90;99.90;;;;;;5053523;28;20099;-89
2021/07/30 07:37:13;;;;;;;0.00;0.00;;;19.10;99.90;;;;;;5043754;28;20051;-90
2021/07/30 07:40:00;;;;;;;0.00;0.00;;;19.40;99.90;;;;;;5047955;28;20130;-89
2021/07/30 07:42:48;;;;;;;0.00;0.00;;;19.50;99.90;;;;;;5051026;28;20051;-90
2021/07/30 07:45:35;;;;;;;0.00;0.00;;;19.70;99.90;;;;;;5050276;28;20171;-89
2021/07/30 07:48:22;;;;;;;0.00;0.00;;;19.90;99.90;;;;;;5054683;28;20425;-89
2021/07/30 07:51:11;;;;;;;0.00;0.00;;;20.00;99.90;;;;;;5047579;28;20051;-89
2021/07/30 07:53:58;;;;;;;0.00;0.00;;;;;;;;;;5058887;28;20119;-88
2021/07/30 07:56:45;;;;;;;0.00;0.00;;;20.20;99.90;;;;;;5054457;28;20131;-89
2021/07/30 07:59:33;;;;;;;0.00;0.00;;;20.20;99.20;;;;;;5047027;28;20037;-90
2021/07/30 08:02:20;;;;;;;0.00;0.00;;;20.10;99.90;;;;;;5048859;28;20421;-88
2021/07/30 08:05:08;;;;;;;0.00;0.00;;;20.10;99.30;;;;;;5053809;28;20124;-87
2021/07/30 08:07:57;;;;;;;0.00;0.00;;;20.10;99.70;;;;;;5047995;28;20388;-88
2021/07/30 08:10:44;;;;;;;0.00;0.00;;;20.10;99.60;;;;;;5053118;28;20044;-89
2021/07/30 08:13:31;;;;;;;0.00;0.00;;;20.20;99.70;;;;;;5056026;28;20501;-88
2021/07/30 08:16:24;;;;;;;0.00;0.00;;;20.10;99.30;;;;;;5056302;28;20064;-87
2021/07/30 08:19:11;;;;;;;0.00;0.00;;;20.30;99.30;;;;;;5057562;28;20146;-90
2021/07/30 08:21:59;;;;;;;0.00;0.00;;;20.40;99.30;;;;;;5051754;28;20140;-89
2021/07/30 08:24:47;;;;;;;0.00;0.00;;;20.50;99.10;;;;;;5057879;28;20123;-87
2021/07/30 08:27:35;;;;;;;0.00;0.00;;;20.70;99.30;;;;;;5058266;28;20048;-89
2021/07/30 08:30:22;;;;;;;0.00;0.00;;;20.80;98.60;;;;;;5057655;28;20406;-88
2021/07/30 08:33:09;;;;;;;0.00;0.00;;;20.90;99.10;;;;;;5054436;28;20127;-88
2021/07/30 08:35:56;;;;;;;0.00;0.00;;;20.90;99.10;;;;;;5058674;28;20186;-90
2021/07/30 08:38:43;;;;;;;0.00;0.00;;;21.00;98.70;;;;;;5050049;28;20049;-88
2021/07/30 08:41:33;;;;;;;0.00;0.00;;;21.00;98.80;;;;;;5045807;28;20215;-89
2021/07/30 08:44:22;;;;;;;0.00;0.00;;;21.20;97.80;;;;;;5057290;28;20190;-87
2021/07/30 08:47:11;;;;;;;0.00;0.00;;;21.20;98.20;;;;;;5057242;28;20396;-87
2021/07/30 08:49:58;;;;;;;0.00;0.00;;;21.10;97.60;;;;;;5047777;28;20045;-91
2021/07/30 08:52:55;;;;;;;0.00;0.00;;;21.10;98.10;;;;;;5052233;28;20040;-90
2021/07/30 08:55:42;;;;;;;0.00;0.00;;;21.10;97.70;;;;;;5054330;28;20040;-90
2021/07/30 08:58:32;;;;;;;0.00;0.00;;;21.30;98.60;;;;;;5057213;28;20449;-89
2021/07/30 09:01:19;;;;;;;0.00;0.00;;;21.50;99.10;;;;;;5072010;28;20032;-89
2021/07/30 09:04:07;;;;;;;0.00;0.00;;;21.70;98.20;;;;;;5050323;28;20185;-88
2021/07/30 09:06:55;;;;;;;0.00;0.00;;;21.90;98.40;;;;;;5054392;28;20158;-89
2021/07/30 09:09:52;;;;;;;0.00;0.00;;;22.10;98.50;;;;;;5057347;28;20494;-88
2021/07/30 09:12:39;;;;;;;0.00;0.00;;;22.10;97.30;;;;;;5050659;28;20048;-89
2021/07/30 09:15:27;;;;;;;0.00;0.00;;;22.40;97.20;;;;;;5050542;28;20664;-87
2021/07/30 09:18:30;;;;;;;0.00;0.00;;;22.40;95.80;;;;;;5053132;28;20053;-88
2021/07/30 09:21:28;;;;;;;0.00;0.00;;;22.50;96.50;;;;;;5051770;28;20037;-86
2021/07/30 09:24:17;;;;;;;0.00;0.00;;;22.60;96.30;;;;;;5049733;28;20051;-90
2021/07/30 09:27:05;;;;;;;0.00;0.00;;;22.80;96.10;;;;;;5057529;28;20098;-87
2021/07/30 09:30:11;;;;;;;0.00;0.00;;;22.90;96.50;;;;;;5064977;28;20036;-89
2021/07/30 09:33:00;;;;;;;0.00;0.00;;;22.90;95.70;;;;;;5054512;28;20740;-88
2021/07/30 09:35:58;;;;;;;0.00;0.00;;;22.90;96.00;;;;;;5051997;28;20241;-91
2021/07/30 09:38:59;;;;;;;0.00;0.00;;;22.90;96.10;;;;;;5055194;28;20083;-89
2021/07/30 09:41:51;;;;;;;0.00;0.00;;;22.90;96.30;;;;;;5053355;28;20094;-90
2021/07/30 09:44:51;;;;;;;0.00;0.00;;;22.80;95.40;;;;;;5051000;28;20048;-88
2021/07/30 09:47:47;;;;;;;0.00;0.00;;;22.80;95.80;;;;;;5054062;28;20506;-89
2021/07/30 09:50:35;;;;;;;0.00;0.00;;;22.50;95.70;;;;;;5049125;28;20131;-88
2021/07/30 09:53:23;;;;;;;0.00;0.00;;;22.60;96.60;;;;;;5055679;28;20142;-90
2021/07/30 09:56:12;;;;;;;0.00;0.00;;;22.60;95.10;;;;;;5050443;28;20049;-89
2021/07/30 09:59:02;;;;;;;0.00;0.00;;;22.70;96.00;;;;;;5053374;28;20055;-89
2021/07/30 10:01:49;;;;;;;0.00;0.00;;;22.80;97.00;;;;;;5047669;28;20041;-88
2021/07/30 10:04:39;;;;;;;0.00;0.00;;;22.90;96.00;;;;;;5046809;28;20056;-89
2021/07/30 10:07:29;;;;;;;0.00;0.00;;;22.90;96.00;;;;;;5063622;28;20048;-89
2021/07/30 10:13:09;;;;;;;0.00;0.00;;;23.10;94.60;;;;;;5064093;28;20049;-90
2021/07/30 10:15:56;;;;;;;0.00;0.00;;;22.70;94.90;;;;;;5054607;28;20047;-89
2021/07/30 10:18:45;;;;;;;0.00;0.00;;;22.70;96.30;;;;;;5056344;28;20454;-88
2021/07/30 10:21:34;;;;;;;0.00;0.00;;;22.80;95.10;;;;;;5048352;28;20143;-88
2021/07/30 10:24:24;;;;;;;0.00;0.00;;;22.90;96.40;;;;;;5046258;28;20041;-88
2021/07/30 10:27:11;;;;;;;;;;;22.90;96.20;;;;;;5059225;28;20052;-87
2021/07/30 10:30:10;;;;;;;0.00;0.00;;;22.90;96.20;;;;;;5053202;28;19946;-89
2021/07/30 10:32:59;;;;;;;0.00;0.00;;;22.90;97.00;;;;;;5051902;28;20066;-87
2021/07/30 10:35:47;;;;;;;0.00;0.00;;;;;;;;;;5046653;28;20558;-87
2021/07/30 10:38:35;;;;;;;0.00;0.00;;;22.90;94.80;;;;;;5054624;28;20051;-90
2021/07/30 10:41:23;;;;;;;0.00;0.00;;;22.90;95.00;;;;;;5052832;28;20409;-88
2021/07/30 10:44:11;;;;;;;0.00;0.00;;;22.90;95.00;;;;;;5056253;28;20084;-89
2021/07/30 10:47:20;;;;;;;0.00;0.00;;;23.00;94.70;;;;;;5053824;28;20054;-87
2021/07/30 10:50:40;;;;;;;0.00;0.00;;;23.20;95.70;;;;;;5057786;28;20036;-89
2021/07/30 10:53:52;;;;;;;0.00;0.00;;;23.40;95.60;;;;;;5042724;28;20163;-89
2021/07/30 10:56:41;;;;;;;0.00;0.00;;;23.70;94.50;;;;;;5057532;28;20139;-90
2021/07/30 11:00:00;;;;;;;0.00;0.00;;;23.70;93.50;;;;;;5052509;28;20128;-89
2021/07/30 11:03:06;;;;;;;0.00;0.00;;;23.50;93.70;;;;;;5055590;28;20078;-89
2021/07/30 11:06:10;;;;;;;0.00;0.00;;;23.60;95.20;;;;;;5050520;28;20178;-88
2021/07/30 11:09:12;;;;;;;0.00;0.00;;;23.80;94.40;;;;;;5053829;28;20135;-88
2021/07/30 11:12:05;;;;;;;0.00;0.00;;;24.50;94.30;;;;;;5049075;28;20069;-87
2021/07/30 11:14:52;;;;;;;0.00;0.00;;;24.20;93.80;;;;;;5047141;28;20523;-86
2021/07/30 11:17:40;;;;;;;0.00;0.00;;;24.40;93.90;;;;;;5053847;28;20514;-91
2021/07/30 11:20:35;;;;;;;0.00;0.00;;;24.60;93.20;;;;;;5054096;28;20482;-87
2021/07/30 11:23:22;;;;;;;0.00;0.00;;;24.90;94.20;;;;;;5061002;28;20056;-88
2021/07/30 11:26:09;;;;;;;0.00;0.00;;;25.00;93.30;;;;;;5049458;28;20048;-87
2021/07/30 11:28:59;;;;;;;0.00;0.00;;;25.10;92.30;;;;;;5054464;28;20051;-88
2021/07/30 11:31:52;;;;;;;0.00;0.00;;;24.80;92.70;;;;;;5056357;28;20153;-89
2021/07/30 11:34:41;;;;;;;0.00;0.00;;;24.60;92.50;;;;;;5043967;28;20121;-87
2021/07/30 11:37:30;;;;;;;0.00;0.00;;;24.50;93.30;;;;;;5054329;28;20171;-87
2021/07/30 11:40:18;;;;;;;0.00;0.00;;;24.70;93.80;;;;;;5053281;28;20048;-89
2021/07/30 11:43:07;;;;;;;0.00;0.00;;;24.90;91.70;;;;;;5051554;28;20041;-89
2021/07/30 11:46:11;;;;;;;0.00;0.00;;;25.00;93.40;;;;;;5053809;28;20048;-89
2021/07/30 11:48:59;;;;;;;0.00;0.00;;;24.90;91.60;;;;;;5054448;28;20040;-87
2021/07/30 11:51:47;;;;;;;0.00;0.00;;;24.70;92.00;;;;;;5053465;28;20123;-90
2021/07/30 11:54:35;;;;;;;0.00;0.00;;;24.80;91.70;;;;;;5054128;28;20047;-88
2021/07/30 11:57:26;;;;;;;0.00;0.00;;;25.10;92.10;;;;;;5047084;28;20153;-89
2021/07/30 12:00:23;;;;;;;0.00;0.00;;;25.40;92.30;;;;;;5058438;28;20386;-88
2021/07/30 12:03:21;;;;;;;0.00;0.00;;;25.70;92.10;;;;;;5044906;28;20420;-89
2021/07/30 12:06:09;;;;;;;0.00;0.00;;;25.70;91.80;;;;;;5054556;28;20523;-89
2021/07/30 12:08:57;;;;;;;0.00;0.00;;;25.70;89.80;;;;;;5042049;28;20076;-88
2021/07/30 12:11:50;;;;;;;0.00;0.00;;;25.50;90.90;;;;;;5045928;28;20055;-87
2021/07/30 12:14:37;;;;;;;0.00;0.00;;;25.60;91.30;;;;;;5044707;28;20115;-86
2021/07/30 12:17:28;;;;;;;0.00;0.00;;;25.70;91.70;;;;;;5057520;28;20048;-90
2021/07/30 12:20:17;;;;;;;0.00;0.00;;;25.90;92.00;;;;;;5051302;28;20059;-90
2021/07/30 12:23:06;;;;;;;0.00;0.00;;;25.80;91.00;;;;;;5042332;28;20123;-87
2021/07/30 12:25:54;;;;;;;0.00;0.00;;;25.70;90.10;;;;;;5045454;28;20303;-89
2021/07/30 12:28:42;;;;;;;0.00;0.00;;;25.80;90.30;;;;;;5040037;28;20044;-87
2021/07/30 12:31:31;;;;;;;0.00;0.00;;;25.80;90.70;;;;;;5051929;28;20041;-90
2021/07/30 12:34:19;;;;;;;0.00;0.00;;;26.00;91.80;;;;;;5047686;28;20085;-88
2021/07/30 12:37:10;;;;;;;0.00;0.00;;;26.20;90.60;;;;;;5056150;28;20127;-88
2021/07/30 12:39:58;;;;;;;0.00;0.00;;;26.20;91.50;;;;;;5054042;28;20040;-87
2021/07/30 12:42:46;;;;;;;0.00;0.00;;;;;;;;;;5067241;28;20473;-87
2021/07/30 12:45:38;;;;;;;0.00;0.00;;;26.50;91.30;;;;;;5053471;28;20616;-87
2021/07/30 12:48:25;;;;;;;0.00;0.00;;;26.70;90.70;;;;;;5054782;28;20048;-89
2021/07/30 12:51:22;;;;;;;0.00;0.00;;;26.60;89.60;;;;;;5053274;28;20049;-89
2021/07/30 12:54:14;;;;;;;0.00;0.00;;;27.10;90.70;;;;;;5054591;28;20135;-89
2021/07/30 12:57:03;;;;;;;0.00;0.00;;;27.10;91.00;;;;;;5054075;28;20079;-88
2021/07/30 12:59:52;;;;;;;0.00;0.00;;;27.20;90.50;;;;;;5055593;28;20154;-89
2021/07/30 13:02:45;;;;;;;0.00;0.00;;;27.30;90.00;;;;;;5047465;28;20123;-89
2021/07/30 13:05:36;;;;;;;0.00;0.00;;;27.50;90.00;;;;;;5050997;28;20043;-89
2021/07/30 13:08:25;;;;;;;0.00;0.00;;;27.20;89.20;;;;;;5069726;28;20119;-90
2021/07/30 13:11:17;;;;;;;0.00;0.00;;;27.10;90.00;;;;;;5053906;28;20183;-88
2021/07/30 13:14:04;;;;;;;0.00;0.00;;;26.90;88.10;;;;;;5056100;28;20041;-88
2021/07/30 13:16:51;;;;;;;0.00;0.00;;;27.00;89.70;;;;;;5053344;28;20106;-87
2021/07/30 13:19:38;;;;;;;0.00;0.00;;;27.10;90.50;;;;;;5056000;28;20040;-88
2021/07/30 13:22:26;;;;;;;0.00;0.00;;;27.30;88.40;;;;;;5056697;28;20064;-87
2021/07/30 13:25:13;;;;;;;0.00;0.00;;;27.40;87.10;;;;;;5046235;28;20066;-88
2021/07/30 13:28:03;;;;;;;0.00;0.00;;;27.40;87.60;;;;;;5054342;28;20071;-87
2021/07/30 13:30:52;;;;;;;0.00;0.00;;;27.60;87.50;;;;;;5053271;28;20070;-87
2021/07/30 13:33:39;;;;;;;;;;;27.80;87.70;;;;;;5059349;28;20052;-87
2021/07/30 13:36:26;;;;;;;0.00;0.00;;;28.10;86.30;;;;;;5052930;28;19927;-88
2021/07/30 13:39:13;;;;;;;0.00;0.00;;;28.40;87.80;;;;;;5057176;28;20048;-88
2021/07/30 13:42:00;;;;;;;0.00;0.00;;;28.40;87.90;;;;;;5050247;28;20108;-89
2021/07/30 13:44:53;;;;;;;0.00;0.00;;;28.30;88.00;;;;;;5055849;28;20553;-89
2021/07/30 13:47:40;;;;;;;0.00;0.00;;;28.20;86.00;;;;;;5055338;28;20049;-87
2021/07/30 13:50:28;;;;;;;0.00;0.00;;;28.10;85.70;;;;;;5057312;28;20102;-88
2021/07/30 13:53:15;;;;;;;0.00;0.00;;;27.90;89.90;;;;;;5057857;28;20123;-87
2021/07/30 13:56:02;;;;;;;0.00;0.00;;;27.80;88.20;;;;;;5058260;28;20174;-87
2021/07/30 13:58:49;;;;;;;0.00;0.00;;;;;;;;;;5048620;28;20045;-89
2021/07/30 14:01:38;;;;;;;0.00;0.00;;;27.40;88.00;;;;;;5062267;28;20074;-90
2021/07/30 14:04:26;;;;;;;0.00;0.00;;;;;;;;;;5056282;28;20041;-87
2021/07/30 14:07:13;;;;;;;0.00;0.00;;;27.20;88.10;;;;;;5055040;28;20139;-89
2021/07/30 14:10:01;;;;;;;0.00;0.00;;;27.20;90.00;;;;;;5057365;28;20055;-89
2021/07/30 14:12:48;;;;;;;0.00;0.00;;;27.30;89.90;;;;;;5051244;28;20553;-87
2021/07/30 14:15:36;;;;;;;0.00;0.00;;;27.30;88.60;;;;;;5055113;28;20082;-87
2021/07/30 14:18:24;;;;;;;0.00;0.00;;;27.70;89.10;;;;;;5051648;28;20045;-89
2021/07/30 14:21:13;;;;;;;0.00;0.00;;;28.20;87.50;;;;;;5061930;28;20519;-88
2021/07/30 14:24:00;;;;;;;0.00;0.00;;;28.50;86.90;;;;;;5052921;28;20465;-86
2021/07/30 14:26:47;;;;;;;0.00;0.00;;;28.50;87.60;;;;;;5046955;28;20049;-87
2021/07/30 14:29:35;;;;;;;0.00;0.00;;;28.80;86.90;;;;;;5052823;28;20083;-87
2021/07/30 14:32:22;;;;;;;0.00;0.00;;;28.50;84.80;;;;;;5055053;28;20078;-89
2021/07/30 14:35:12;;;;;;;0.00;0.00;;;28.70;86.80;;;;;;5057137;28;20081;-88
2021/07/30 14:38:00;;;;;;;0.00;0.00;;;29.00;85.50;;;;;;5055312;28;20049;-90
2021/07/30 14:40:47;;;;;;;0.00;0.00;;;29.20;84.10;;;;;;5053712;28;20044;-89
2021/07/30 14:43:34;;;;;;;0.00;0.00;;;29.70;82.70;;;;;;5048842;28;20079;-89
2021/07/30 14:46:29;;;;;;;0.00;0.00;;;29.70;81.80;;;;;;5057932;28;20127;-87
2021/07/30 14:49:17;;;;;;;0.00;0.00;;;29.30;80.90;;;;;;5056377;28;20050;-88